createdAt,value
2023-04-16T00:00:21.953Z,13.70
2023-04-16T00:01:24.491Z,12.50
2023-04-16T00:02:27.852Z,10.63
2023-04-16T00:03:30.465Z,11.30
2023-04-16T00:04:32.798Z,14.02
2023-04-16T00:05:34.994Z,11.20
2023-04-16T00:06:37.127Z,12.10
2023-04-16T00:07:39.565Z,12.57
2023-04-16T00:08:43.452Z,11.60
2023-04-16T00:09:46.493Z,11.98
2023-04-16T00:10:48.709Z,11.77
2023-04-16T00:11:50.886Z,11.88
2023-04-16T00:12:53.172Z,14.25
2023-04-16T00:13:55.335Z,11.77
2023-04-16T00:14:57.470Z,12.48
2023-04-16T00:15:59.744Z,14.82
2023-04-16T00:17:02.440Z,11.65
2023-04-16T00:18:04.715Z,12.48
2023-04-16T00:19:07.397Z,12.60
2023-04-16T00:20:10.313Z,11.75
2023-04-16T00:21:12.529Z,10.95
2023-04-16T00:22:14.734Z,14.23
2023-04-16T00:23:17.259Z,14.48
2023-04-16T00:24:19.475Z,11.00
2023-04-16T00:25:21.888Z,12.68
2023-04-16T00:26:24.141Z,12.23
2023-04-16T00:27:26.603Z,12.57
2023-04-16T00:28:28.856Z,13.60
2023-04-16T00:29:32.318Z,12.25
2023-04-16T00:30:35.057Z,13.80
2023-04-16T00:31:37.720Z,12.10
2023-04-16T00:32:40.027Z,15.10
2023-04-16T00:33:42.236Z,13.43
2023-04-16T00:34:44.480Z,12.38
2023-04-16T00:35:47.263Z,12.05
2023-04-16T00:36:50.112Z,14.43
2023-04-16T00:37:52.464Z,13.32
2023-04-16T00:38:55.988Z,18.00
2023-04-16T00:39:58.328Z,13.82
2023-04-16T00:41:00.561Z,19.52
2023-04-16T00:42:02.729Z,13.40
2023-04-16T00:43:05.320Z,13.13
2023-04-16T00:44:07.513Z,14.93
2023-04-16T00:45:10.563Z,13.35
2023-04-16T00:46:12.944Z,14.07
2023-04-16T00:47:15.222Z,13.80
2023-04-16T00:48:17.703Z,12.50
2023-04-16T00:49:20.849Z,15.25
2023-04-16T00:50:23.763Z,15.70
2023-04-16T00:51:27.011Z,18.92
2023-04-16T00:52:29.629Z,14.80
2023-04-16T00:53:32.648Z,17.23
2023-04-16T00:54:35.828Z,15.43
2023-04-16T00:55:39.108Z,14.20
2023-04-16T00:56:41.480Z,14.65
2023-04-16T00:57:43.700Z,15.50
2023-04-16T00:58:45.892Z,15.32
2023-04-16T00:59:48.434Z,16.13
2023-04-16T01:00:50.789Z,14.70
2023-04-16T01:01:53.134Z,20.15
2023-04-16T01:02:56.048Z,17.48
2023-04-16T01:03:59.477Z,18.60
2023-04-16T01:05:04.583Z,19.83
2023-04-16T01:06:07.556Z,20.45
2023-04-16T01:07:09.765Z,18.17
2023-04-16T01:08:17.876Z,16.83
2023-04-16T01:09:20.193Z,19.70
2023-04-16T01:10:22.442Z,15.85
2023-04-16T01:11:24.829Z,17.25
2023-04-16T01:12:27.006Z,19.30
2023-04-16T01:13:29.316Z,19.30
2023-04-16T01:14:36.055Z,18.15
2023-04-16T01:15:38.656Z,20.27
2023-04-16T01:16:40.858Z,18.08
2023-04-16T01:17:46.058Z,19.98
2023-04-16T01:18:48.263Z,19.00
2023-04-16T01:19:50.654Z,22.17
2023-04-16T01:20:52.903Z,23.33
2023-04-16T01:21:55.085Z,23.45
2023-04-16T01:22:57.338Z,23.30
2023-04-16T01:24:04.078Z,20.38
2023-04-16T01:25:06.457Z,22.42
2023-04-16T01:26:08.628Z,19.88
2023-04-16T01:27:10.829Z,21.85
2023-04-16T01:28:13.309Z,21.25
2023-04-16T01:29:15.535Z,22.08
2023-04-16T01:30:17.738Z,22.75
2023-04-16T01:31:32.582Z,20.27
2023-04-16T01:32:45.475Z,20.45
2023-04-16T01:33:47.692Z,21.95
2023-04-16T01:34:50.013Z,23.40
2023-04-16T01:35:52.285Z,22.08
2023-04-16T01:36:54.512Z,21.67
2023-04-16T01:37:56.770Z,20.63
2023-04-16T01:38:59.052Z,19.17
2023-04-16T01:40:02.318Z,21.58
2023-04-16T01:41:04.768Z,20.38
2023-04-16T01:42:06.968Z,24.98
2023-04-16T01:43:09.171Z,25.50
2023-04-16T01:44:11.616Z,20.10
2023-04-16T01:45:13.749Z,22.25
2023-04-16T01:46:20.809Z,22.77
2023-04-16T01:47:23.468Z,20.48
2023-04-16T01:48:25.832Z,20.13
2023-04-16T01:49:27.985Z,21.20
2023-04-16T01:50:31.072Z,25.17
2023-04-16T01:51:33.371Z,23.42
2023-04-16T01:52:35.686Z,21.15
2023-04-16T01:53:37.876Z,22.08
2023-04-16T01:54:40.516Z,21.45
2023-04-16T01:55:42.686Z,20.20
2023-04-16T01:56:45.170Z,19.63
2023-04-16T01:57:47.511Z,19.92
2023-04-16T01:58:51.513Z,20.00
2023-04-16T01:59:54.613Z,21.48
2023-04-16T02:02:11.603Z,21.02
2023-04-16T02:03:17.549Z,20.80
2023-04-16T02:04:19.987Z,21.52
2023-04-16T02:05:22.223Z,23.08
2023-04-16T02:06:24.444Z,20.83
2023-04-16T02:07:27.322Z,22.73
2023-04-16T02:08:29.546Z,22.63
2023-04-16T02:09:31.830Z,21.77
2023-04-16T02:10:34.125Z,20.88
2023-04-16T02:11:36.916Z,23.25
2023-04-16T02:12:39.454Z,22.63
2023-04-16T02:13:41.790Z,20.45
2023-04-16T02:14:44.615Z,22.92
2023-04-16T02:15:50.495Z,23.65
2023-04-16T02:17:00.258Z,22.55
2023-04-16T02:18:13.351Z,21.77
2023-04-16T02:19:16.029Z,21.98
2023-04-16T02:20:18.387Z,20.75
2023-04-16T02:21:27.428Z,20.98
2023-04-16T02:22:29.722Z,24.08
2023-04-16T02:23:32.497Z,24.67
2023-04-16T02:24:35.626Z,21.80
2023-04-16T02:25:43.654Z,24.42
2023-04-16T02:26:47.729Z,22.67
2023-04-16T02:27:53.007Z,22.38
2023-04-16T02:29:05.620Z,23.55
2023-04-16T02:30:14.810Z,24.08
2023-04-16T02:31:19.521Z,21.77
2023-04-16T02:32:23.120Z,22.92
2023-04-16T02:33:26.629Z,21.60
2023-04-16T02:34:35.414Z,25.98
2023-04-16T02:35:39.685Z,22.48
2023-04-16T02:36:42.055Z,22.92
2023-04-16T02:37:44.551Z,23.25
2023-04-16T02:38:46.875Z,24.05
2023-04-16T02:39:49.922Z,23.88
2023-04-16T02:40:52.081Z,23.83
2023-04-16T02:41:54.317Z,25.98
2023-04-16T02:42:57.189Z,23.27
2023-04-16T02:43:59.694Z,22.60
2023-04-16T02:45:02.167Z,22.42
2023-04-16T02:46:04.593Z,22.73
2023-04-16T02:47:06.894Z,24.58
2023-04-16T02:48:09.663Z,22.58
2023-04-16T02:49:12.003Z,24.65
2023-04-16T02:50:14.326Z,24.27
2023-04-16T02:51:16.644Z,24.67
2023-04-16T02:52:18.859Z,23.88
2023-04-16T02:53:21.360Z,23.98
2023-04-16T02:54:23.603Z,23.52
2023-04-16T02:55:25.975Z,24.17
2023-04-16T02:56:28.149Z,25.85
2023-04-16T02:57:30.480Z,22.98
2023-04-16T02:58:32.699Z,25.58
2023-04-16T02:59:35.057Z,23.08
2023-04-16T03:00:38.000Z,25.20
2023-04-16T03:01:40.154Z,23.85
2023-04-16T03:02:42.628Z,23.13
2023-04-16T03:03:44.961Z,21.65
2023-04-16T03:04:47.139Z,23.65
2023-04-16T03:05:49.390Z,23.73
2023-04-16T03:06:52.021Z,24.00
2023-04-16T03:07:56.644Z,28.25
2023-04-16T03:08:59.000Z,26.90
2023-04-16T03:10:01.399Z,29.58
2023-04-16T03:11:03.709Z,25.35
2023-04-16T03:12:06.345Z,24.63
2023-04-16T03:13:08.598Z,28.98
2023-04-16T03:14:10.952Z,28.13
2023-04-16T03:15:13.228Z,26.10
2023-04-16T03:16:15.943Z,25.95
2023-04-16T03:17:18.260Z,23.15
2023-04-16T03:18:20.505Z,23.23
2023-04-16T03:19:25.625Z,25.15
2023-04-16T03:20:27.847Z,23.27
2023-04-16T03:21:30.095Z,26.75
2023-04-16T03:22:34.019Z,25.50
2023-04-16T03:23:36.469Z,26.17
2023-04-16T03:24:39.670Z,27.33
2023-04-16T03:25:46.434Z,25.48
2023-04-16T03:26:48.856Z,23.48
2023-04-16T03:27:51.234Z,23.73
2023-04-16T03:28:53.743Z,23.65
2023-04-16T03:29:56.210Z,23.77
2023-04-16T03:30:58.386Z,25.60
2023-04-16T03:32:00.803Z,21.13
2023-04-16T03:33:03.092Z,22.55
2023-04-16T03:34:05.444Z,24.63
2023-04-16T03:35:08.670Z,24.90
2023-04-16T03:36:10.803Z,22.33
2023-04-16T03:37:13.025Z,22.45
2023-04-16T03:38:15.489Z,21.88
2023-04-16T03:39:17.667Z,26.48
2023-04-16T03:40:19.904Z,25.55
2023-04-16T03:41:22.100Z,25.77
2023-04-16T03:42:24.346Z,23.92
2023-04-16T03:43:26.566Z,25.27
2023-04-16T03:44:29.611Z,34.08
2023-04-16T03:45:31.819Z,29.38
2023-04-16T03:46:34.080Z,24.67
2023-04-16T03:47:36.455Z,24.65
2023-04-16T03:48:39.287Z,29.17
2023-04-16T03:49:41.528Z,24.10
2023-04-16T03:50:49.783Z,25.77
2023-04-16T03:51:54.690Z,25.55
2023-04-16T03:52:57.038Z,26.45
2023-04-16T03:53:59.397Z,22.77
2023-04-16T03:55:04.018Z,26.10
2023-04-16T03:56:07.379Z,25.02
2023-04-16T03:57:09.542Z,27.10
2023-04-16T03:58:11.727Z,21.45
2023-04-16T03:59:14.002Z,26.92
2023-04-16T04:00:16.479Z,28.20
2023-04-16T04:01:44.695Z,25.20
2023-04-16T04:02:47.238Z,24.88
2023-04-16T04:03:54.355Z,24.13
2023-04-16T04:04:56.707Z,23.58
2023-04-16T04:05:59.008Z,25.08
2023-04-16T04:07:04.704Z,25.92
2023-04-16T04:08:07.125Z,27.15
2023-04-16T04:09:09.507Z,25.65
2023-04-16T04:10:11.818Z,26.45
2023-04-16T04:11:16.741Z,28.55
2023-04-16T04:12:19.397Z,25.88
2023-04-16T04:13:22.731Z,24.58
2023-04-16T04:14:26.312Z,23.85
2023-04-16T04:15:29.667Z,26.45
2023-04-16T04:16:32.455Z,24.60
2023-04-16T04:17:35.325Z,27.48
2023-04-16T04:18:38.135Z,27.85
2023-04-16T04:19:47.256Z,28.52
2023-04-16T04:20:57.126Z,28.70
2023-04-16T04:22:03.551Z,28.33
2023-04-16T04:23:05.695Z,27.42
2023-04-16T04:24:08.249Z,23.38
2023-04-16T04:25:10.918Z,26.85
2023-04-16T04:26:13.192Z,28.05
2023-04-16T04:27:16.124Z,26.13
2023-04-16T04:28:18.293Z,27.35
2023-04-16T04:29:20.649Z,29.98
2023-04-16T04:30:22.911Z,25.13
2023-04-16T04:31:25.273Z,29.58
2023-04-16T04:32:27.566Z,25.52
2023-04-16T04:33:29.755Z,26.15
2023-04-16T04:34:31.945Z,29.00
2023-04-16T04:35:34.664Z,29.10
2023-04-16T04:36:37.566Z,26.00
2023-04-16T04:37:39.812Z,26.33
2023-04-16T04:38:49.130Z,27.92
2023-04-16T04:39:51.829Z,25.50
2023-04-16T04:40:54.213Z,28.92
2023-04-16T04:41:58.213Z,29.25
2023-04-16T04:43:00.367Z,29.35
2023-04-16T04:44:02.582Z,26.63
2023-04-16T04:45:05.763Z,25.83
2023-04-16T04:46:09.652Z,27.25
2023-04-16T04:47:11.984Z,26.77
2023-04-16T04:48:14.336Z,29.40
2023-04-16T04:49:16.591Z,29.67
2023-04-16T04:50:19.039Z,28.33
2023-04-16T04:51:22.177Z,27.95
2023-04-16T04:52:24.370Z,26.30
2023-04-16T04:53:26.743Z,27.33
2023-04-16T04:54:31.097Z,26.95
2023-04-16T04:55:33.303Z,25.33
2023-04-16T04:56:35.644Z,27.20
2023-04-16T04:57:37.807Z,26.30
2023-04-16T04:58:41.566Z,24.85
2023-04-16T04:59:43.965Z,26.50
2023-04-16T05:00:47.841Z,29.27
2023-04-16T05:01:50.718Z,29.92
2023-04-16T05:02:52.989Z,26.05
2023-04-16T05:03:55.436Z,26.25
2023-04-16T05:04:57.621Z,28.52
2023-04-16T05:05:59.906Z,27.90
2023-04-16T05:07:02.544Z,29.08
2023-04-16T05:08:04.892Z,26.85
2023-04-16T05:09:11.487Z,25.10
2023-04-16T05:10:14.311Z,28.55
2023-04-16T05:11:16.493Z,25.73
2023-04-16T05:12:18.692Z,29.15
2023-04-16T05:13:20.895Z,25.83
2023-04-16T05:14:23.183Z,24.73
2023-04-16T05:15:25.348Z,30.90
2023-04-16T05:16:27.562Z,27.17
2023-04-16T05:17:29.718Z,26.77
2023-04-16T05:18:33.268Z,32.40
2023-04-16T05:19:35.522Z,26.85
2023-04-16T05:20:37.898Z,23.75
2023-04-16T05:21:40.170Z,24.73
2023-04-16T05:22:42.366Z,25.58
2023-04-16T05:23:44.526Z,28.95
2023-04-16T05:24:46.685Z,26.67
2023-04-16T05:25:48.796Z,26.88
2023-04-16T05:26:51.240Z,23.58
2023-04-16T05:27:53.410Z,23.98
2023-04-16T05:28:55.813Z,26.17
2023-04-16T05:29:58.037Z,25.20
2023-04-16T05:31:00.327Z,27.85
2023-04-16T05:32:02.721Z,28.02
2023-04-16T05:33:04.936Z,25.20
2023-04-16T05:34:07.066Z,27.23
2023-04-16T05:35:09.830Z,27.95
2023-04-16T05:36:12.005Z,25.98
2023-04-16T05:37:14.213Z,25.23
2023-04-16T05:38:16.372Z,26.13
2023-04-16T05:39:18.690Z,25.23
2023-04-16T05:40:20.907Z,27.63
2023-04-16T05:41:23.148Z,27.30
2023-04-16T05:42:25.345Z,27.33
2023-04-16T05:43:27.582Z,28.25
2023-04-16T05:44:29.739Z,26.27
2023-04-16T05:45:33.436Z,28.17
2023-04-16T05:46:35.851Z,29.70
2023-04-16T05:47:38.190Z,26.70
2023-04-16T05:48:40.484Z,26.33
2023-04-16T05:49:42.641Z,28.63
2023-04-16T05:50:44.856Z,27.35
2023-04-16T05:51:47.391Z,26.55
2023-04-16T05:52:49.606Z,29.20
2023-04-16T05:53:51.788Z,26.73
2023-04-16T05:54:53.990Z,24.88
2023-04-16T05:55:56.171Z,23.77
2023-04-16T05:56:58.353Z,27.35
2023-04-16T05:58:00.571Z,30.85
2023-04-16T05:59:02.791Z,26.42
2023-04-16T06:00:05.557Z,26.38
2023-04-16T06:01:14.295Z,28.15
2023-04-16T06:02:16.586Z,24.83
2023-04-16T06:03:18.952Z,24.40
2023-04-16T06:04:21.440Z,23.70
2023-04-16T06:05:28.765Z,24.40
2023-04-16T06:06:31.254Z,26.88
2023-04-16T06:07:33.546Z,25.50
2023-04-16T06:08:35.765Z,24.95
2023-04-16T06:09:38.002Z,23.45
2023-04-16T06:10:40.384Z,25.05
2023-04-16T06:11:42.785Z,27.05
2023-04-16T06:12:45.062Z,21.77
2023-04-16T06:13:47.316Z,22.90
2023-04-16T06:14:49.512Z,24.15
2023-04-16T06:15:51.782Z,26.52
2023-04-16T06:16:53.984Z,24.38
2023-04-16T06:17:56.325Z,23.15
2023-04-16T06:18:58.585Z,20.70
2023-04-16T06:20:00.823Z,22.65
2023-04-16T06:21:04.137Z,23.80
2023-04-16T06:22:06.563Z,23.83
2023-04-16T06:23:08.687Z,22.70
2023-04-16T06:24:11.205Z,23.30
2023-04-16T06:25:13.375Z,25.73
2023-04-16T06:26:15.775Z,24.40
2023-04-16T06:27:17.950Z,24.20
2023-04-16T06:28:20.223Z,23.30
2023-04-16T06:29:25.925Z,22.73
2023-04-16T06:30:36.004Z,23.17
2023-04-16T06:31:38.237Z,21.73
2023-04-16T06:32:40.884Z,22.35
2023-04-16T06:33:43.306Z,21.00
2023-04-16T06:34:45.620Z,21.15
2023-04-16T06:35:47.828Z,19.23
2023-04-16T06:36:50.024Z,21.38
2023-04-16T06:37:52.284Z,20.25
2023-04-16T06:38:54.740Z,19.20
2023-04-16T06:39:56.942Z,24.25
2023-04-16T06:40:59.571Z,24.23
2023-04-16T06:42:02.038Z,22.25
2023-04-16T06:43:04.385Z,18.98
2023-04-16T06:44:06.696Z,21.92
2023-04-16T06:45:09.196Z,21.55
2023-04-16T06:46:11.411Z,22.00
2023-04-16T06:47:13.584Z,21.40
2023-04-16T06:48:16.029Z,19.63
2023-04-16T06:49:18.364Z,20.33
2023-04-16T06:50:21.270Z,20.13
2023-04-16T06:51:23.537Z,21.05
2023-04-16T06:52:26.068Z,22.15
2023-04-16T06:53:28.371Z,21.08
2023-04-16T06:54:30.938Z,18.45
2023-04-16T06:55:33.254Z,18.42
2023-04-16T06:56:37.329Z,19.08
2023-04-16T06:57:40.673Z,19.40
2023-04-16T06:58:42.860Z,17.40
2023-04-16T06:59:45.127Z,16.95
2023-04-16T07:00:47.367Z,18.15
2023-04-16T07:01:49.561Z,17.17
2023-04-16T07:02:52.049Z,19.77
2023-04-16T07:03:54.827Z,17.27
2023-04-16T07:04:57.147Z,17.38
2023-04-16T07:05:59.396Z,16.73
2023-04-16T07:07:01.802Z,17.10
2023-04-16T07:08:04.086Z,16.90
2023-04-16T07:09:06.234Z,16.35
2023-04-16T07:10:08.796Z,19.35
2023-04-16T07:11:11.502Z,18.88
2023-04-16T07:12:13.739Z,17.90
2023-04-16T07:13:16.002Z,16.58
2023-04-16T07:14:18.170Z,18.42
2023-04-16T07:15:20.417Z,17.95
2023-04-16T07:16:22.804Z,15.77
2023-04-16T07:17:25.174Z,16.05
2023-04-16T07:18:27.586Z,16.42
2023-04-16T07:19:32.495Z,17.00
2023-04-16T07:20:36.099Z,19.98
2023-04-16T07:21:38.846Z,17.88
2023-04-16T07:22:41.243Z,18.00
2023-04-16T07:23:43.821Z,19.38
2023-04-16T07:24:46.097Z,16.25
2023-04-16T07:25:48.530Z,16.73
2023-04-16T07:26:50.810Z,23.17
2023-04-16T07:27:53.060Z,21.15
2023-04-16T07:28:55.249Z,19.42
2023-04-16T07:29:57.791Z,17.10
2023-04-16T07:31:00.370Z,19.38
2023-04-16T07:32:02.996Z,18.95
2023-04-16T07:33:05.573Z,19.50
2023-04-16T07:34:08.224Z,15.82
2023-04-16T07:35:10.437Z,16.85
2023-04-16T07:36:12.786Z,17.33
2023-04-16T07:37:15.073Z,15.60
2023-04-16T07:38:17.662Z,14.95
2023-04-16T07:39:19.832Z,16.02
2023-04-16T07:40:23.022Z,16.70
2023-04-16T07:41:25.810Z,15.88
2023-04-16T07:42:28.137Z,14.27
2023-04-16T07:43:30.385Z,18.75
2023-04-16T07:44:32.763Z,16.92
2023-04-16T07:45:37.382Z,13.73
2023-04-16T07:46:46.748Z,15.57
2023-04-16T07:47:49.804Z,14.20
2023-04-16T07:48:52.130Z,15.52
2023-04-16T07:49:54.286Z,16.70
2023-04-16T07:50:56.505Z,16.95
2023-04-16T07:51:58.686Z,16.88
2023-04-16T07:53:01.144Z,17.02
2023-04-16T07:54:03.357Z,13.88
2023-04-16T07:55:06.386Z,15.02
2023-04-16T07:56:08.666Z,16.08
2023-04-16T07:57:12.191Z,17.70
2023-04-16T07:58:14.378Z,17.02
2023-04-16T07:59:22.681Z,16.95
2023-04-16T08:00:26.413Z,16.52
2023-04-16T08:01:28.600Z,16.45
2023-04-16T08:02:31.294Z,16.50
2023-04-16T08:03:33.721Z,16.23
2023-04-16T08:04:36.310Z,16.40
2023-04-16T08:05:38.787Z,17.63
2023-04-16T08:06:41.284Z,15.18
2023-04-16T08:07:43.460Z,18.38
2023-04-16T08:08:45.695Z,15.23
2023-04-16T08:09:49.488Z,19.20
2023-04-16T08:10:55.702Z,15.50
2023-04-16T08:11:58.033Z,18.70
2023-04-16T08:13:01.481Z,16.05
2023-04-16T08:14:03.743Z,17.17
2023-04-16T08:15:06.642Z,16.75
2023-04-16T08:16:08.895Z,17.98
2023-04-16T08:17:15.012Z,15.98
2023-04-16T08:18:17.276Z,16.30
2023-04-16T08:19:19.580Z,14.63
2023-04-16T08:20:21.730Z,16.67
2023-04-16T08:21:23.953Z,16.77
2023-04-16T08:22:26.368Z,18.55
2023-04-16T08:23:28.784Z,18.90
2023-04-16T08:24:31.586Z,16.52
2023-04-16T08:25:34.205Z,16.55
2023-04-16T08:26:36.396Z,18.00
2023-04-16T08:27:38.585Z,17.88
2023-04-16T08:28:40.764Z,17.63
2023-04-16T08:29:42.956Z,18.65
2023-04-16T08:30:45.692Z,16.42
2023-04-16T08:31:47.994Z,18.40
2023-04-16T08:32:50.552Z,17.10
2023-04-16T08:33:52.842Z,19.45
2023-04-16T08:34:55.291Z,19.50
2023-04-16T08:35:57.643Z,16.50
2023-04-16T08:36:59.881Z,20.85
2023-04-16T08:38:03.541Z,18.27
2023-04-16T08:39:05.869Z,18.88
2023-04-16T08:40:08.668Z,18.55
2023-04-16T08:41:13.362Z,20.20
2023-04-16T08:42:26.339Z,18.10
2023-04-16T08:43:33.641Z,18.67
2023-04-16T08:44:43.559Z,21.05
2023-04-16T08:45:47.405Z,18.95
2023-04-16T08:46:51.499Z,20.67
2023-04-16T08:47:53.834Z,21.20
2023-04-16T08:48:59.083Z,21.00
2023-04-16T08:50:03.750Z,19.50
2023-04-16T08:51:09.779Z,24.08
2023-04-16T08:52:18.424Z,20.02
2023-04-16T08:53:29.644Z,20.08
2023-04-16T08:54:34.520Z,23.35
2023-04-16T08:55:41.386Z,22.00
2023-04-16T08:56:43.676Z,21.70
2023-04-16T08:57:48.902Z,18.17
2023-04-16T08:58:54.866Z,21.67
2023-04-16T08:59:58.079Z,21.63
2023-04-16T09:01:03.037Z,19.52
2023-04-16T09:02:06.357Z,20.35
2023-04-16T09:03:09.516Z,22.55
2023-04-16T09:04:14.388Z,19.15
2023-04-16T09:05:17.494Z,17.42
2023-04-16T09:06:19.654Z,18.58
2023-04-16T09:07:22.143Z,19.13
2023-04-16T09:08:25.498Z,19.00
2023-04-16T09:09:28.827Z,19.33
2023-04-16T09:10:31.366Z,19.88
2023-04-16T09:11:34.379Z,18.65
2023-04-16T09:12:36.773Z,18.13
2023-04-16T09:13:39.181Z,20.67
2023-04-16T09:14:42.970Z,18.17
2023-04-16T09:15:45.544Z,20.40
2023-04-16T09:16:48.163Z,19.60
2023-04-16T09:17:50.500Z,20.17
2023-04-16T09:18:52.747Z,20.30
2023-04-16T09:19:55.084Z,19.50
2023-04-16T09:20:57.508Z,18.77
2023-04-16T09:21:59.766Z,21.55
2023-04-16T09:23:02.222Z,19.27
2023-04-16T09:24:04.663Z,21.45
2023-04-16T09:25:07.509Z,17.85
2023-04-16T09:26:09.750Z,22.75
2023-04-16T09:27:12.875Z,18.58
2023-04-16T09:28:38.783Z,18.92
2023-04-16T09:29:41.663Z,19.67
2023-04-16T09:30:43.974Z,19.08
2023-04-16T09:32:01.722Z,20.50
2023-04-16T09:33:17.271Z,18.70
2023-04-16T09:34:19.477Z,20.02
2023-04-16T09:35:21.829Z,19.10
2023-04-16T09:36:24.019Z,20.67
2023-04-16T09:37:31.125Z,20.30
2023-04-16T09:38:52.389Z,18.60
2023-04-16T09:40:02.252Z,19.83
2023-04-16T09:41:08.720Z,18.75
2023-04-16T09:42:14.269Z,20.88
2023-04-16T09:43:18.289Z,19.95
2023-04-16T09:44:20.523Z,19.73
2023-04-16T09:45:22.753Z,20.42
2023-04-16T09:46:29.602Z,20.20
2023-04-16T09:47:45.717Z,17.90
2023-04-16T09:48:47.971Z,16.60
2023-04-16T09:49:50.300Z,17.98
2023-04-16T09:50:52.529Z,18.77
2023-04-16T09:51:56.171Z,20.13
2023-04-16T09:53:02.498Z,17.77
2023-04-16T09:54:05.542Z,18.15
2023-04-16T09:55:07.999Z,18.98
2023-04-16T09:56:12.569Z,19.30
2023-04-16T09:57:18.510Z,19.40
2023-04-16T09:58:20.951Z,17.85
2023-04-16T09:59:24.206Z,20.23
2023-04-16T10:00:26.540Z,19.15
2023-04-16T10:01:30.774Z,17.58
2023-04-16T10:02:39.016Z,17.45
2023-04-16T10:03:41.881Z,18.55
2023-04-16T10:04:48.564Z,17.30
2023-04-16T10:05:53.609Z,17.52
2023-04-16T10:07:06.260Z,21.05
2023-04-16T10:08:13.005Z,17.80
2023-04-16T10:09:15.272Z,20.33
2023-04-16T10:10:21.618Z,20.48
2023-04-16T10:11:29.665Z,18.13
2023-04-16T10:12:32.973Z,17.70
2023-04-16T10:13:35.262Z,18.95
2023-04-16T10:14:37.706Z,17.23
2023-04-16T10:15:40.721Z,16.77
2023-04-16T10:16:43.969Z,17.30
2023-04-16T10:17:46.793Z,18.35
2023-04-16T10:18:49.098Z,17.38
2023-04-16T10:19:51.490Z,16.40
2023-04-16T10:20:53.742Z,17.75
2023-04-16T10:21:56.035Z,16.85
2023-04-16T10:22:59.057Z,18.23
2023-04-16T10:24:01.543Z,19.85
2023-04-16T10:25:04.117Z,17.02
2023-04-16T10:26:06.464Z,16.65
2023-04-16T10:27:08.811Z,19.25
2023-04-16T10:28:13.498Z,17.75
2023-04-16T10:29:15.957Z,16.50
2023-04-16T10:30:19.414Z,15.48
2023-04-16T10:31:22.705Z,15.65
2023-04-16T10:32:28.462Z,16.48
2023-04-16T10:33:33.307Z,15.55
2023-04-16T10:34:36.338Z,16.65
2023-04-16T10:35:41.293Z,17.58
2023-04-16T10:36:43.531Z,16.33
2023-04-16T10:37:45.853Z,15.40
2023-04-16T10:38:50.047Z,15.60
2023-04-16T10:39:52.442Z,16.13
2023-04-16T10:41:03.407Z,18.42
2023-04-16T10:42:12.748Z,15.75
2023-04-16T10:43:19.289Z,16.60
2023-04-16T10:44:24.780Z,15.68
2023-04-16T10:45:31.507Z,14.88
2023-04-16T10:46:38.388Z,14.35
2023-04-16T10:47:43.003Z,14.50
2023-04-16T10:49:50.992Z,15.02
2023-04-16T10:50:57.572Z,12.85
2023-04-16T10:52:03.080Z,15.13
2023-04-16T10:53:31.225Z,14.95
2023-04-16T10:54:36.058Z,13.93
2023-04-16T10:55:39.138Z,15.20
2023-04-16T10:56:41.331Z,16.10
2023-04-16T10:57:43.773Z,13.65
2023-04-16T10:58:45.990Z,16.42
2023-04-16T10:59:48.977Z,13.88
2023-04-16T11:00:52.691Z,12.98
2023-04-16T11:02:01.286Z,15.18
2023-04-16T11:03:04.650Z,13.13
2023-04-16T11:04:22.339Z,14.98
2023-04-16T11:05:24.673Z,16.08
2023-04-16T11:06:28.381Z,16.17
2023-04-16T11:07:34.759Z,14.25
2023-04-16T11:08:53.339Z,13.93
2023-04-16T11:10:02.971Z,15.60
2023-04-16T11:11:05.948Z,15.13
2023-04-16T11:12:11.880Z,15.80
2023-04-16T11:13:14.290Z,15.38
2023-04-16T11:14:16.566Z,15.70
2023-04-16T11:15:23.309Z,15.95
2023-04-16T11:16:26.349Z,15.10
2023-04-16T11:17:31.777Z,15.95
2023-04-16T11:18:34.491Z,15.45
2023-04-16T11:19:38.078Z,17.48
2023-04-16T11:20:41.426Z,16.80
2023-04-16T11:21:45.140Z,16.23
2023-04-16T11:22:51.701Z,16.70
2023-04-16T11:23:54.046Z,15.77
2023-04-16T11:24:56.704Z,16.95
2023-04-16T11:25:59.265Z,16.02
2023-04-16T11:27:01.757Z,18.83
2023-04-16T11:28:04.028Z,17.10
2023-04-16T11:29:14.752Z,16.13
2023-04-16T11:30:17.443Z,18.73
2023-04-16T11:31:19.821Z,18.98
2023-04-16T11:32:22.711Z,16.70
2023-04-16T11:33:25.583Z,19.80
2023-04-16T11:34:27.838Z,16.05
2023-04-16T11:35:30.285Z,14.80
2023-04-16T11:36:46.057Z,17.92
2023-04-16T11:37:50.862Z,16.38
2023-04-16T11:39:02.071Z,14.65
2023-04-16T11:40:09.586Z,16.98
2023-04-16T11:41:18.962Z,16.90
2023-04-16T11:42:23.020Z,17.27
2023-04-16T11:43:26.720Z,15.15
2023-04-16T11:44:29.626Z,16.20
2023-04-16T11:45:31.873Z,17.40
2023-04-16T11:46:42.793Z,14.93
2023-04-16T11:47:51.785Z,15.88
2023-04-16T11:48:57.918Z,16.13
2023-04-16T11:50:16.542Z,14.75
2023-04-16T11:51:19.554Z,14.95
2023-04-16T11:52:29.121Z,16.83
2023-04-16T11:53:31.362Z,17.42
2023-04-16T11:54:34.858Z,16.48
2023-04-16T11:55:45.527Z,16.13
2023-04-16T11:56:49.286Z,17.20
2023-04-16T11:57:52.132Z,16.92
2023-04-16T11:59:11.720Z,16.35
2023-04-16T12:00:14.976Z,17.38
2023-04-16T12:01:21.326Z,17.45
2023-04-16T12:02:40.505Z,19.67
2023-04-16T12:03:46.886Z,18.60
2023-04-16T12:04:49.590Z,18.75
2023-04-16T12:05:51.837Z,18.63
2023-04-16T12:07:13.247Z,17.50
2023-04-16T12:08:29.330Z,19.83
2023-04-16T12:09:31.589Z,17.15
2023-04-16T12:10:35.810Z,17.48
2023-04-16T12:11:41.538Z,20.55
2023-04-16T12:12:43.688Z,17.55
2023-04-16T12:14:11.214Z,19.35
2023-04-16T12:15:13.540Z,18.83
2023-04-16T12:16:22.469Z,18.27
2023-04-16T12:17:24.898Z,17.70
2023-04-16T12:18:27.307Z,19.52
2023-04-16T12:19:29.581Z,19.02
2023-04-16T12:20:41.476Z,18.90
2023-04-16T12:21:45.843Z,17.95
2023-04-16T12:22:49.626Z,24.08
2023-04-16T12:23:54.833Z,19.20
2023-04-16T12:25:04.439Z,17.92
2023-04-16T12:26:10.162Z,19.13
2023-04-16T12:27:12.900Z,21.63
2023-04-16T12:28:16.503Z,23.02
2023-04-16T12:29:24.265Z,19.02
2023-04-16T12:30:27.700Z,18.42
2023-04-16T12:31:38.752Z,18.58
2023-04-16T12:32:42.352Z,19.02
2023-04-16T12:34:01.202Z,20.92
2023-04-16T12:35:04.145Z,19.92
2023-04-16T12:36:19.769Z,18.70
2023-04-16T12:37:22.048Z,19.52
2023-04-16T12:38:25.525Z,17.75
2023-04-16T12:39:27.797Z,18.17
2023-04-16T12:40:30.042Z,18.02
2023-04-16T12:41:32.270Z,23.33
2023-04-16T12:42:37.724Z,19.27
2023-04-16T12:43:40.254Z,19.23
2023-04-16T12:44:42.487Z,21.33
2023-04-16T12:45:44.868Z,22.63
2023-04-16T12:46:47.136Z,18.13
2023-04-16T12:47:50.401Z,18.63
2023-04-16T12:48:52.861Z,19.08
2023-04-16T12:49:57.726Z,21.13
2023-04-16T12:50:59.914Z,19.80
2023-04-16T12:52:02.672Z,17.77
2023-04-16T12:53:04.871Z,19.85
2023-04-16T12:54:08.054Z,20.73
2023-04-16T12:55:10.568Z,20.48
2023-04-16T12:56:12.876Z,19.45
2023-04-16T12:57:16.113Z,20.10
2023-04-16T12:58:18.259Z,20.80
2023-04-16T12:59:20.546Z,18.27
2023-04-16T13:00:22.990Z,19.60
2023-04-16T13:01:25.186Z,19.63
2023-04-16T13:02:27.814Z,19.30
2023-04-16T13:03:31.065Z,20.27
2023-04-16T13:04:33.535Z,20.85
2023-04-16T13:05:35.933Z,20.88
2023-04-16T13:06:38.396Z,24.20
2023-04-16T13:07:41.414Z,20.83
2023-04-16T13:08:45.409Z,27.73
2023-04-16T13:09:47.787Z,19.55
2023-04-16T13:10:50.093Z,22.67
2023-04-16T13:11:52.411Z,20.10
2023-04-16T13:12:54.638Z,21.35
2023-04-16T13:13:57.165Z,23.63
2023-04-16T13:14:59.389Z,19.00
2023-04-16T13:16:04.052Z,19.75
2023-04-16T13:17:06.390Z,20.38
2023-04-16T13:18:08.948Z,21.80
2023-04-16T13:19:11.248Z,21.25
2023-04-16T13:20:13.656Z,22.27
2023-04-16T13:21:15.968Z,20.17
2023-04-16T13:22:18.196Z,22.13
2023-04-16T13:23:20.459Z,20.23
2023-04-16T13:24:23.511Z,21.63
2023-04-16T13:25:25.841Z,22.08
2023-04-16T13:26:28.095Z,22.05
2023-04-16T13:27:31.985Z,18.75
2023-04-16T13:28:34.168Z,18.13
2023-04-16T13:29:36.660Z,20.95
2023-04-16T13:30:38.945Z,22.13
2023-04-16T13:31:41.423Z,25.13
2023-04-16T13:32:43.965Z,21.83
2023-04-16T13:33:46.808Z,21.25
2023-04-16T13:34:48.966Z,21.75
2023-04-16T13:35:51.207Z,22.23
2023-04-16T13:36:53.374Z,20.45
2023-04-16T13:37:55.808Z,22.20
2023-04-16T13:38:58.749Z,19.58
2023-04-16T13:40:01.147Z,23.13
2023-04-16T13:41:03.543Z,18.15
2023-04-16T13:42:05.999Z,21.17